Time;durP1;ratioP1;P1;durP2;ratioP2;P2;SDS_P1;SDS_P2;PMS_P1;PMS_P2;Temp;Humidity;BMP_temperature;BMP_pressure;BME280_temperature;BME280_humidity;BME280_pressure;Samples;Min_cycle;Max_cycle;Signal;HPM_P1;HPM_P2
2022/03/18 00:02:14;;;;;;;21.37;13.93;;;8.50;99.90;8.30;102417.00;;;;4955963;28;92958;-65
2022/03/18 00:04:41;;;;;;;24.73;16.73;;;8.40;99.90;8.30;102427.00;;;;4955698;28;95443;-65
2022/03/18 00:07:07;;;;;;;26.40;15.23;;;8.40;99.90;8.20;102423.00;;;;4950159;28;94378;-65
2022/03/18 00:09:33;;;;;;;24.63;14.13;;;8.40;99.90;8.20;102417.00;;;;4937363;28;92821;-66
2022/03/18 00:11:59;;;;;;;23.33;13.80;;;8.30;99.90;8.20;102429.00;;;;4936367;28;100167;-65
2022/03/18 00:14:24;;;;;;;19.37;13.40;;;8.30;99.90;8.10;102434.00;;;;4948372;28;93402;-65
2022/03/18 00:16:50;;;;;;;17.30;12.70;;;8.20;99.90;8.10;102424.00;;;;4935661;28;121909;-65
2022/03/18 00:19:16;;;;;;;22.30;14.97;;;8.20;99.90;8.00;102427.00;;;;4944552;28;92656;-65
2022/03/18 00:21:42;;;;;;;24.27;12.93;;;8.20;99.90;8.00;102436.00;;;;4936731;28;95864;-65
2022/03/18 00:24:09;;;;;;;26.40;13.87;;;8.10;99.90;7.90;102436.00;;;;4937924;28;93640;-65
2022/03/18 00:26:35;;;;;;;19.07;11.83;;;8.10;99.90;7.90;102436.00;;;;4916316;28;93956;-66
2022/03/18 00:29:01;;;;;;;17.77;12.30;;;8.00;99.90;7.80;102437.00;;;;4929530;28;103597;-65
2022/03/18 00:31:26;;;;;;;20.93;11.87;;;8.00;99.90;7.80;102444.00;;;;4935456;28;108765;-65
2022/03/18 00:33:52;;;;;;;22.67;12.50;;;7.90;99.90;7.70;102451.00;;;;4935289;28;122181;-65
2022/03/18 00:36:18;;;;;;;15.43;10.57;;;7.90;99.90;7.70;102446.00;;;;4916551;28;120925;-65
2022/03/18 00:38:44;;;;;;;17.80;11.10;;;8.10;99.90;7.60;102449.00;;;;4935952;28;97232;-65
2022/03/18 00:41:09;;;;;;;17.60;11.27;;;7.80;99.90;7.60;102448.00;;;;4936185;28;92877;-65
2022/03/18 00:43:35;;;;;;;18.67;12.10;;;7.70;99.90;7.50;102451.00;;;;4943711;28;122535;-65
2022/03/18 00:46:01;;;;;;;17.33;10.43;;;7.60;99.90;7.50;102452.00;;;;4954428;28;122602;-66
2022/03/18 00:53:55;;;;;;;13.67;8.40;;;7.60;99.90;7.40;102468.00;;;;4951357;28;94093;-65
2022/03/18 00:56:21;;;;;;;21.60;11.73;;;7.80;99.90;7.40;102457.00;;;;4945251;28;124025;-66
2022/03/18 00:58:46;;;;;;;18.80;9.87;;;7.50;99.90;7.30;102459.00;;;;4936013;28;92779;-65
2022/03/18 01:01:12;;;;;;;16.70;9.83;;;7.50;99.90;7.30;102470.00;;;;4937633;28;92703;-65
2022/03/18 01:03:38;;;;;;;18.03;9.57;;;7.50;99.90;7.30;102464.00;;;;4935199;28;123229;-66
2022/03/18 01:06:04;;;;;;;13.27;8.50;;;7.80;99.90;7.30;102471.00;;;;4931395;28;121034;-65
2022/03/18 01:08:29;;;;;;;16.10;8.83;;;7.40;99.90;7.30;102456.00;;;;4956165;28;96030;-66
2022/03/18 01:10:55;;;;;;;12.83;8.47;;;7.50;99.90;7.40;102465.00;;;;4956467;28;92089;-66
2022/03/18 01:13:22;;;;;;;12.23;7.87;;;7.50;99.90;7.40;102468.00;;;;4943230;28;123335;-65
2022/03/18 01:15:47;;;;;;;13.97;8.63;;;7.50;99.90;7.40;102477.00;;;;4935532;28;108700;-65
2022/03/18 01:18:13;;;;;;;14.47;8.33;;;7.50;99.90;7.40;102481.00;;;;4937138;28;109843;-65
2022/03/18 01:20:39;;;;;;;14.43;9.20;;;7.50;99.90;7.40;102480.00;;;;4937862;28;92723;-66
2022/03/18 01:23:06;;;;;;;12.23;8.03;;;7.70;99.90;7.40;102487.00;;;;4949779;28;120164;-65
2022/03/18 01:25:35;;;;;;;14.50;8.97;;;7.60;99.90;7.50;102484.00;;;;4925752;28;93202;-65
2022/03/18 01:28:06;;;;;;;14.60;8.03;;;7.60;99.90;7.50;102492.00;;;;4935311;28;93138;-65
2022/03/18 01:30:32;;;;;;;12.40;7.13;;;7.60;99.90;7.50;102487.00;;;;4937321;28;92731;-65
2022/03/18 01:33:02;;;;;;;15.77;8.03;;;7.60;99.90;7.60;102488.00;;;;4940872;28;94060;-65
2022/03/18 01:35:29;;;;;;;11.97;7.97;;;7.80;99.90;7.60;102496.00;;;;4956301;28;92202;-66
2022/03/18 01:37:55;;;;;;;14.53;7.47;;;7.70;99.90;7.60;102490.00;;;;4956657;28;92883;-65
2022/03/18 01:40:21;;;;;;;12.67;6.27;;;8.10;99.90;7.70;102496.00;;;;4956089;28;92975;-65
2022/03/18 01:42:47;;;;;;;13.60;8.43;;;7.70;99.90;7.70;102486.00;;;;4955465;28;116077;-65
2022/03/18 01:45:13;;;;;;;13.63;7.13;;;7.90;99.90;7.70;102495.00;;;;4954919;28;122976;-65
2022/03/18 01:47:45;;;;;;;11.57;7.83;;;7.80;99.90;7.70;102504.00;;;;4955569;28;110646;-66
2022/03/18 01:50:13;;;;;;;9.90;6.50;;;8.30;99.90;7.70;102501.00;;;;4944658;28;93113;-65
2022/03/18 01:52:39;;;;;;;14.57;7.67;;;7.80;99.90;7.70;102506.00;;;;4937308;28;93491;-65
2022/03/18 01:55:06;;;;;;;9.63;6.53;;;7.80;99.90;7.70;102509.00;;;;4935349;28;93604;-66
2022/03/18 01:57:32;;;;;;;10.97;7.77;;;7.80;99.90;7.70;102499.00;;;;4934937;28;102767;-66
2022/03/18 01:59:58;;;;;;;11.90;7.10;;;7.80;99.90;7.70;102511.00;;;;4936593;28;92100;-65
2022/03/18 02:02:25;;;;;;;15.67;7.53;;;8.10;99.90;7.70;102519.00;;;;4936164;28;92986;-65
2022/03/18 02:04:51;;;;;;;9.23;6.93;;;7.80;99.90;7.70;102513.00;;;;4916916;28;92810;-65
2022/03/18 02:07:17;;;;;;;9.53;5.90;;;7.80;99.90;7.70;102522.00;;;;4917730;28;99022;-65
2022/03/18 02:09:44;;;;;;;11.17;7.20;;;7.80;99.90;7.70;102522.00;;;;4935297;28;93078;-67
2022/03/18 02:12:11;;;;;;;8.80;6.97;;;7.90;99.90;7.70;102529.00;;;;4936057;28;93209;-65
2022/03/18 02:14:46;;;;;;;17.03;7.30;;;7.80;99.90;7.70;102529.00;;;;4935597;28;103161;-65
2022/03/18 02:17:15;;;;;;;9.17;5.53;;;7.80;99.90;7.70;102527.00;;;;4937036;28;92732;-65
2022/03/18 02:19:44;;;;;;;13.93;6.83;;;7.80;99.90;7.70;102538.00;;;;4936174;28;92812;-66
2022/03/18 02:22:17;;;;;;;11.67;6.80;;;7.80;99.90;7.70;102527.00;;;;4935022;28;93151;-65
2022/03/18 02:24:46;;;;;;;10.13;6.37;;;7.80;99.90;7.70;102529.00;;;;4946989;28;92862;-65
2022/03/18 02:27:13;;;;;;;13.97;7.23;;;7.80;99.90;7.70;102538.00;;;;4933766;28;92888;-65
2022/03/18 02:29:39;;;;;;;10.47;6.73;;;7.80;99.90;7.70;102535.00;;;;4953568;28;93202;-66
2022/03/18 02:32:07;;;;;;;14.33;5.53;;;7.80;99.90;7.70;102553.00;;;;4954649;28;94255;-65
2022/03/18 02:34:35;;;;;;;9.40;5.43;;;7.80;99.90;7.70;102548.00;;;;4935907;28;93970;-65
2022/03/18 02:37:00;;;;;;;6.77;4.97;;;7.90;99.90;7.70;102547.00;;;;4954848;28;92827;-65
2022/03/18 02:39:27;;;;;;;11.10;6.83;;;8.20;99.90;7.70;102560.00;;;;4955773;28;108589;-66
2022/03/18 02:41:53;;;;;;;13.53;7.30;;;7.90;99.90;7.70;102550.00;;;;4954207;28;114644;-66
2022/03/18 02:44:19;;;;;;;10.20;6.23;;;7.90;99.90;7.80;102549.00;;;;4939601;28;92963;-66
2022/03/18 02:46:45;;;;;;;11.10;5.03;;;7.80;99.90;7.70;102560.00;;;;4944823;28;111110;-65
2022/03/18 02:49:10;;;;;;;8.60;5.37;;;7.80;99.90;7.80;102564.00;;;;4940714;28;108568;-66
2022/03/18 02:51:37;;;;;;;17.03;6.87;;;7.80;99.90;7.70;102565.00;;;;4934370;28;122824;-66
2022/03/18 02:54:04;;;;;;;11.83;6.33;;;7.80;99.90;7.70;102569.00;;;;4935445;28;93313;-65
2022/03/18 02:56:31;;;;;;;11.23;6.70;;;8.00;99.90;7.70;102569.00;;;;4934914;28;94022;-65
2022/03/18 02:58:56;;;;;;;12.57;6.60;;;7.80;99.90;7.70;102568.00;;;;4935767;28;92807;-65
2022/03/18 03:01:22;;;;;;;9.17;5.80;;;7.80;99.90;7.70;102572.00;;;;4935205;28;121856;-66
2022/03/18 03:03:48;;;;;;;12.30;7.30;;;7.70;99.90;7.70;102574.00;;;;4934574;28;122643;-65
2022/03/18 03:07:59;;;;;;;8.97;5.77;;;7.70;99.90;7.60;102575.00;;;;4933975;28;111255;-66
2022/03/18 03:09:13;;;;;;;10.70;6.53;;;7.70;99.90;7.60;102577.00;;;;4950309;28;92794;-65
2022/03/18 03:11:38;;;;;;;11.73;7.00;;;7.70;99.90;7.60;102584.00;;;;4958233;28;93357;-64
2022/03/18 03:14:04;;;;;;;9.90;5.97;;;7.60;99.90;7.50;102587.00;;;;4942165;28;123273;-66
2022/03/18 03:16:30;;;;;;;9.97;7.07;;;7.70;99.90;7.50;102592.00;;;;4939990;28;92693;-66
2022/03/18 03:18:56;;;;;;;15.67;7.40;;;7.60;99.90;7.50;102590.00;;;;4957442;28;92870;-66
2022/03/18 03:21:21;;;;;;;12.07;6.90;;;7.60;99.90;7.50;102594.00;;;;4957347;28;94479;-66
2022/03/18 03:23:47;;;;;;;13.33;8.83;;;7.60;99.90;7.40;102601.00;;;;4956871;28;123027;-66
2022/03/18 03:26:14;;;;;;;18.33;7.30;;;7.60;99.90;7.40;102593.00;;;;4924514;28;92867;-67
2022/03/18 03:28:41;;;;;;;12.20;8.00;;;7.60;99.90;7.30;102602.00;;;;4932863;28;92854;-65
2022/03/18 03:31:07;;;;;;;10.30;8.23;;;7.40;99.90;7.30;102609.00;;;;4937952;28;92838;-65
2022/03/18 03:33:33;;;;;;;18.87;8.43;;;7.40;99.90;7.30;102614.00;;;;4938383;28;94004;-65
2022/03/18 03:35:58;;;;;;;17.57;8.33;;;7.60;99.90;7.20;102625.00;;;;4946667;28;93036;-65
2022/03/18 03:38:25;;;;;;;15.17;8.90;;;7.40;99.90;7.20;102627.00;;;;4958595;28;92162;-65
2022/03/18 03:40:51;;;;;;;16.67;9.40;;;7.50;99.90;7.20;102630.00;;;;4957567;28;93882;-65
2022/03/18 03:43:17;;;;;;;11.60;8.70;;;7.40;99.90;7.10;102634.00;;;;4947313;28;111595;-66
2022/03/18 03:45:43;;;;;;;19.23;9.93;;;7.40;99.90;7.10;102641.00;;;;4937719;28;93755;-66
2022/03/18 03:48:10;;;;;;;19.20;9.30;;;7.40;99.90;7.00;102639.00;;;;4943592;28;97931;-66
2022/03/18 03:50:37;;;;;;;18.43;8.87;;;7.40;99.90;7.00;102640.00;;;;4957534;28;94167;-66
2022/03/18 03:53:03;;;;;;;19.23;10.23;;;7.30;99.90;7.00;102657.00;;;;4957052;28;105321;-65
2022/03/18 03:55:29;;;;;;;19.07;10.70;;;7.10;99.90;7.00;102647.00;;;;4956577;28;92825;-65
2022/03/18 03:57:55;;;;;;;15.47;9.87;;;7.10;99.90;6.90;102652.00;;;;4953867;28;93214;-64
2022/03/18 04:00:21;;;;;;;15.40;8.77;;;7.00;99.90;6.90;102646.00;;;;4936794;28;105968;-64
2022/03/18 04:02:47;;;;;;;14.60;9.33;;;7.00;99.90;6.90;102651.00;;;;4938271;28;102782;-65
2022/03/18 04:05:13;;;;;;;16.23;10.67;;;7.00;99.90;6.90;102647.00;;;;4937791;28;92760;-65
2022/03/18 04:07:41;;;;;;;12.83;9.90;;;7.00;99.90;6.80;102664.00;;;;4938847;28;93026;-65
2022/03/18 04:10:10;;;;;;;19.23;12.00;;;7.00;99.90;6.80;102668.00;;;;4938912;28;116712;-64
2022/03/18 04:12:36;;;;;;;15.37;9.33;;;7.00;99.90;6.80;102669.00;;;;4949349;28;93864;-65
2022/03/18 04:15:08;;;;;;;20.30;10.57;;;6.90;99.90;6.70;102670.00;;;;4944577;28;99527;-65
2022/03/18 04:17:43;;;;;;;21.93;10.70;;;6.90;99.90;6.70;102666.00;;;;4956160;28;92543;-66
2022/03/18 04:20:12;;;;;;;16.13;10.70;;;6.90;99.90;6.70;102672.00;;;;4937987;28;93153;-64
2022/03/18 04:22:39;;;;;;;25.10;13.80;;;6.80;99.90;6.60;102678.00;;;;4938218;28;93077;-64
2022/03/18 04:25:06;;;;;;;15.37;11.33;;;7.00;99.90;6.60;102681.00;;;;4941223;28;92835;-65
2022/03/18 04:27:33;;;;;;;19.17;13.90;;;6.80;99.90;6.60;102683.00;;;;4922170;28;92095;-65
2022/03/18 04:29:58;;;;;;;18.43;12.57;;;6.70;99.90;6.50;102685.00;;;;4938498;28;121921;-66
2022/03/18 04:32:24;;;;;;;20.93;11.97;;;6.70;99.90;6.50;102687.00;;;;4936259;28;93144;-65
2022/03/18 04:34:50;;;;;;;19.87;12.47;;;6.70;99.90;6.50;102688.00;;;;4924177;28;93821;-66
2022/03/18 04:37:15;;;;;;;22.03;12.53;;;7.10;99.90;6.50;102700.00;;;;4955247;28;109982;-65
2022/03/18 04:39:41;;;;;;;17.57;11.67;;;6.60;99.90;6.40;102698.00;;;;4947120;28;102173;-66
2022/03/18 04:42:07;;;;;;;20.77;12.80;;;7.00;99.90;6.40;102696.00;;;;4935873;28;121881;-65
2022/03/18 04:44:33;;;;;;;23.37;12.90;;;6.60;99.90;6.40;102698.00;;;;4936406;28;92843;-65
2022/03/18 04:46:59;;;;;;;24.17;14.03;;;6.70;99.90;6.30;102699.00;;;;4936341;28;92928;-65
2022/03/18 04:49:24;;;;;;;24.27;14.00;;;6.50;99.90;6.30;102706.00;;;;4935184;28;123112;-66
2022/03/18 04:51:50;;;;;;;24.37;15.10;;;6.70;99.90;6.30;102717.00;;;;4934941;28;122627;-65
2022/03/18 04:54:16;;;;;;;22.90;14.77;;;6.80;99.90;6.20;102711.00;;;;4935313;28;114140;-64
2022/03/18 04:59:25;;;;;;;21.10;13.00;;;6.40;99.90;6.20;102725.00;;;;4933020;28;93668;-66
2022/03/18 05:01:51;;;;;;;21.13;13.63;;;6.40;99.90;6.10;102719.00;;;;4935212;28;122480;-65
2022/03/18 05:04:17;;;;;;;22.17;14.60;;;6.30;99.90;6.10;102716.00;;;;4936559;28;92931;-65
2022/03/18 05:06:43;;;;;;;22.03;13.00;;;6.30;99.90;6.10;102723.00;;;;4954619;28;94711;-66
2022/03/18 05:09:08;;;;;;;20.03;12.83;;;6.30;99.90;6.10;102720.00;;;;4937551;28;121781;-65
2022/03/18 05:11:34;;;;;;;25.07;13.40;;;6.30;99.90;6.10;102730.00;;;;4934810;28;108312;-65
2022/03/18 05:14:00;;;;;;;19.17;12.40;;;6.20;99.90;6.10;102737.00;;;;4936576;28;93070;-65
2022/03/18 05:16:25;;;;;;;21.60;13.43;;;6.20;99.90;6.10;102745.00;;;;4936141;28;92115;-65
2022/03/18 05:18:54;;;;;;;22.30;12.43;;;6.20;99.90;6.00;102749.00;;;;4935845;28;93579;-66
2022/03/18 05:21:20;;;;;;;16.93;12.67;;;6.20;99.90;6.00;102756.00;;;;4935595;28;93102;-65
2022/03/18 05:23:46;;;;;;;22.17;12.60;;;6.10;99.90;6.00;102745.00;;;;4936539;28;98414;-65
2022/03/18 05:26:13;;;;;;;19.13;11.87;;;6.10;99.90;6.00;102749.00;;;;4935430;28;92842;-65
2022/03/18 05:28:39;;;;;;;24.17;13.30;;;6.10;99.90;6.00;102755.00;;;;4936852;28;104046;-65
2022/03/18 05:31:05;;;;;;;21.47;12.23;;;6.20;99.90;6.00;102763.00;;;;4934851;28;93416;-65
2022/03/18 05:33:30;;;;;;;22.80;13.97;;;6.10;99.90;6.00;102771.00;;;;4934026;28;112924;-65
2022/03/18 05:35:56;;;;;;;22.73;13.93;;;6.10;99.90;6.00;102769.00;;;;4936491;28;107258;-65
2022/03/18 05:38:21;;;;;;;24.87;13.90;;;6.10;99.90;6.00;102777.00;;;;4954466;28;122971;-65
2022/03/18 05:40:47;;;;;;;27.77;14.03;;;6.10;99.90;6.00;102787.00;;;;4954536;28;108631;-65
2022/03/18 05:43:13;;;;;;;20.73;12.70;;;6.10;99.90;6.00;102795.00;;;;4954328;28;112780;-66
2022/03/18 05:45:39;;;;;;;16.00;11.80;;;6.10;99.90;5.90;102780.00;;;;4955282;28;92727;-66
2022/03/18 05:48:06;;;;;;;22.50;13.10;;;6.10;99.90;5.90;102796.00;;;;4954223;28;93841;-66
2022/03/18 05:50:33;;;;;;;16.67;12.27;;;6.10;99.90;6.00;102798.00;;;;4955018;28;93540;-66
2022/03/18 05:52:59;;;;;;;17.63;12.07;;;6.70;99.90;6.00;102799.00;;;;4955485;28;92829;-66
2022/03/18 05:55:26;;;;;;;15.00;10.23;;;6.30;99.90;6.00;102804.00;;;;4955031;28;92795;-65
2022/03/18 05:57:53;;;;;;;18.73;11.97;;;6.10;99.90;6.10;102806.00;;;;4939048;28;93593;-66
2022/03/18 06:00:20;;;;;;;17.23;11.33;;;6.20;99.90;6.10;102801.00;;;;4915745;28;122824;-66
2022/03/18 06:02:45;;;;;;;27.60;12.70;;;6.70;99.90;6.10;102812.00;;;;4938445;28;92972;-66
2022/03/18 06:05:11;;;;;;;18.47;12.40;;;6.70;99.90;6.10;102809.00;;;;4943101;28;99579;-66
2022/03/18 06:07:38;;;;;;;20.33;11.50;;;6.40;99.90;6.20;102816.00;;;;4935979;28;122893;-66
2022/03/18 06:12:49;;;;;;;17.03;9.70;;;6.30;99.90;6.20;102826.00;;;;4944418;28;93840;-66
2022/03/18 06:15:15;;;;;;;16.57;10.63;;;6.30;99.90;6.20;102814.00;;;;4934179;28;109186;-66
2022/03/18 06:17:40;;;;;;;17.43;10.47;;;6.40;99.90;6.20;102832.00;;;;4935467;28;93365;-66
2022/03/18 06:20:07;;;;;;;14.53;9.80;;;6.80;99.90;6.20;102840.00;;;;4934970;28;122202;-65
2022/03/18 06:22:32;;;;;;;19.70;10.97;;;6.40;99.90;6.30;102846.00;;;;4934843;28;102574;-65
2022/03/18 06:24:58;;;;;;;16.50;9.33;;;6.40;99.90;6.30;102849.00;;;;4927568;28;108332;-65
2022/03/18 06:27:24;;;;;;;18.07;10.57;;;6.50;99.90;6.30;102854.00;;;;4914946;28;123109;-65
2022/03/18 06:29:51;;;;;;;16.87;10.73;;;6.40;99.90;6.30;102856.00;;;;4925060;28;123363;-65
2022/03/18 06:32:17;;;;;;;20.77;9.60;;;6.50;99.90;6.30;102858.00;;;;4951633;28;92959;-66
2022/03/18 06:34:42;;;;;;;16.97;11.33;;;6.40;99.90;6.40;102847.00;;;;4952785;28;108942;-65
2022/03/18 06:37:08;;;;;;;17.00;10.60;;;6.60;99.90;6.40;102859.00;;;;4935662;28;122271;-65
2022/03/18 06:39:34;;;;;;;13.73;9.57;;;6.50;99.90;6.40;102868.00;;;;4934892;28;111408;-65
2022/03/18 06:42:02;;;;;;;18.17;10.97;;;7.00;99.90;6.50;102859.00;;;;4935282;28;92977;-65
2022/03/18 06:44:28;;;;;;;19.87;10.43;;;6.60;99.90;6.50;102870.00;;;;4918049;28;93018;-65
2022/03/18 06:46:54;;;;;;;13.33;8.87;;;7.10;99.90;6.60;102870.00;;;;4937974;28;94065;-66
2022/03/18 06:49:20;;;;;;;19.93;10.13;;;6.80;99.90;6.60;102873.00;;;;4920824;28;93346;-65
2022/03/18 06:51:45;;;;;;;17.13;11.00;;;6.70;99.90;6.70;102878.00;;;;4938539;28;92999;-64
2022/03/18 06:54:12;;;;;;;18.10;11.77;;;6.80;99.90;6.80;102874.00;;;;4938429;28;106878;-64
2022/03/18 06:56:38;;;;;;;20.20;12.60;;;7.10;99.90;6.90;102879.00;;;;4944558;28;94029;-66
2022/03/18 06:59:04;;;;;;;21.30;10.60;;;7.00;99.90;7.00;102897.00;;;;4958077;28;93532;-65
2022/03/18 07:01:30;;;;;;;19.53;11.30;;;7.10;99.90;7.10;102887.00;;;;4956890;28;93576;-66
2022/03/18 07:03:56;;;;;;;15.53;9.60;;;7.50;99.90;7.30;102907.00;;;;4957578;28;108994;-66
2022/03/18 07:06:22;;;;;;;17.87;10.23;;;7.30;99.90;7.40;102907.00;;;;4938123;28;111264;-65
2022/03/18 07:08:47;;;;;;;19.10;10.27;;;7.50;99.90;7.70;102907.00;;;;4958182;28;93164;-65
2022/03/18 07:11:13;;;;;;;21.17;9.87;;;8.00;99.90;7.80;102912.00;;;;4942168;28;113415;-66
2022/03/18 07:13:43;;;;;;;17.37;9.27;;;7.80;99.90;8.10;102913.00;;;;4939099;28;92827;-65
2022/03/18 07:18:54;;;;;;;13.73;7.80;;;8.30;99.90;8.50;102926.00;;;;4936178;28;92887;-65
2022/03/18 07:21:21;;;;;;;16.93;7.73;;;8.50;99.90;8.70;102931.00;;;;4953726;28;92921;-65
2022/03/18 07:23:47;;;;;;;15.63;8.60;;;8.70;99.90;8.90;102944.00;;;;4959093;28;93083;-65
2022/03/18 07:26:13;;;;;;;14.27;8.47;;;8.90;99.90;9.10;102944.00;;;;4939158;28;123860;-65
2022/03/18 07:28:39;;;;;;;14.13;8.77;;;9.10;99.90;9.20;102939.00;;;;4937821;28;100497;-65
2022/03/18 07:31:05;;;;;;;16.70;7.63;;;9.20;99.90;9.40;102947.00;;;;4937150;28;110223;-65
2022/03/18 07:33:30;;;;;;;9.10;6.30;;;9.40;99.90;9.60;102955.00;;;;4937668;28;107764;-65
2022/03/18 07:35:56;;;;;;;14.93;7.43;;;9.60;99.90;9.80;102954.00;;;;4927500;28;93054;-66
2022/03/18 07:38:22;;;;;;;11.53;7.47;;;9.70;99.90;9.90;102954.00;;;;4941821;28;93344;-65
2022/03/18 07:40:48;;;;;;;13.53;8.90;;;9.90;99.90;10.00;102956.00;;;;4920117;28;92947;-65
2022/03/18 07:43:13;;;;;;;11.40;7.40;;;10.00;99.90;10.00;102955.00;;;;4938905;28;92209;-66
2022/03/18 07:45:40;;;;;;;15.80;7.87;;;10.00;99.90;10.10;102954.00;;;;4936512;28;114361;-66
2022/03/18 07:48:08;;;;;;;15.03;9.43;;;10.20;99.90;10.30;102956.00;;;;4940781;28;93707;-65
2022/03/18 07:50:36;;;;;;;15.90;8.57;;;10.30;99.90;10.50;102958.00;;;;4957442;28;93869;-66
2022/03/18 07:53:08;;;;;;;14.53;8.53;;;10.40;99.90;10.70;102959.00;;;;4958401;28;92697;-65
2022/03/18 07:55:40;;;;;;;18.10;9.07;;;10.60;99.90;10.80;102970.00;;;;4937135;28;93592;-66
2022/03/18 07:58:06;;;;;;;16.77;8.50;;;10.80;99.90;11.00;102979.00;;;;4957228;28;93845;-64
2022/03/18 08:00:32;;;;;;;9.17;7.27;;;10.90;99.90;11.20;102966.00;;;;4957136;28;92823;-66
2022/03/18 08:02:57;;;;;;;16.23;8.30;;;11.20;99.90;11.40;102971.00;;;;4957408;28;107885;-65
2022/03/18 08:05:23;;;;;;;16.57;8.47;;;11.30;99.90;11.60;102968.00;;;;4954282;28;122368;-65
2022/03/18 08:07:49;;;;;;;11.93;7.87;;;11.50;99.90;11.70;102977.00;;;;4937807;28;100736;-66
2022/03/18 08:10:17;;;;;;;15.00;7.60;;;11.70;99.90;11.90;102977.00;;;;4944047;28;93011;-65
2022/03/18 08:12:45;;;;;;;11.97;8.20;;;11.90;99.90;12.10;102979.00;;;;4950908;28;92852;-66
2022/03/18 08:15:14;;;;;;;10.17;7.77;;;12.00;99.90;12.30;102977.00;;;;4942248;28;94108;-65
2022/03/18 08:17:41;;;;;;;13.63;7.93;;;12.20;99.90;12.40;102986.00;;;;4957319;28;93872;-66
2022/03/18 08:20:08;;;;;;;14.33;6.50;;;12.40;99.90;12.60;102983.00;;;;4957068;28;92836;-65
2022/03/18 08:22:36;;;;;;;18.10;9.23;;;12.50;99.90;12.80;102990.00;;;;4957243;28;94551;-66
2022/03/18 08:25:03;;;;;;;14.90;7.83;;;12.70;99.90;13.00;102984.00;;;;4932074;28;93215;-65
2022/03/18 08:27:28;;;;;;;15.23;8.20;;;12.90;99.10;13.20;102994.00;;;;4937368;28;95754;-65
2022/03/18 08:29:59;;;;;;;12.00;7.67;;;13.60;98.40;13.40;102996.00;;;;4936767;28;110815;-66
2022/03/18 08:32:27;;;;;;;10.50;6.93;;;13.30;97.40;13.60;103001.00;;;;4937775;28;92056;-65
2022/03/18 08:34:53;;;;;;;19.90;8.23;;;13.50;96.90;13.80;103004.00;;;;4946728;28;93967;-65
2022/03/18 08:37:56;;;;;;;13.23;7.17;;;13.70;95.90;13.90;103009.00;;;;4955978;28;116654;-65
2022/03/18 08:40:06;;;;;;;12.33;6.60;;;13.80;94.60;14.00;103008.00;;;;4950577;28;93898;-66
2022/03/18 08:42:31;;;;;;;11.70;7.27;;;13.90;93.30;14.10;103009.00;;;;4937693;28;92778;-66
2022/03/18 08:44:58;;;;;;;11.77;7.87;;;14.10;92.60;14.30;103015.00;;;;4918080;28;120243;-65
2022/03/18 08:47:24;;;;;;;11.70;7.33;;;14.20;92.10;14.40;103025.00;;;;4936290;28;112566;-65
2022/03/18 08:49:50;;;;;;;14.10;7.27;;;14.30;91.20;14.50;103024.00;;;;4936524;28;106216;-65
2022/03/18 08:52:16;;;;;;;12.00;7.57;;;14.40;90.40;14.60;103027.00;;;;4936258;28;109075;-65
2022/03/18 08:54:42;;;;;;;13.27;7.90;;;14.50;88.90;14.60;103042.00;;;;4936934;28;94115;-66
2022/03/18 08:57:08;;;;;;;9.37;6.10;;;14.60;87.50;14.70;103036.00;;;;4936994;28;93356;-65
2022/03/18 08:59:34;;;;;;;14.23;7.70;;;14.70;86.50;14.80;103038.00;;;;4937059;28;92928;-65
2022/03/18 09:02:00;;;;;;;17.63;7.90;;;14.70;85.60;14.80;103043.00;;;;4936466;28;108169;-65
2022/03/18 09:04:25;;;;;;;9.75;5.97;;;14.80;84.50;14.90;103041.00;;;;4939099;28;123699;-65
2022/03/18 09:06:51;;;;;;;9.57;6.60;;;14.80;82.10;14.90;103044.00;;;;4955499;28;103535;-65
2022/03/18 09:09:16;;;;;;;11.50;6.47;;;14.90;82.00;15.00;103036.00;;;;4954375;28;111350;-66
2022/03/18 09:11:42;;;;;;;13.07;6.22;;;14.90;81.00;15.10;103037.00;;;;4955605;28;108818;-65
2022/03/18 09:14:08;;;;;;;13.90;8.07;;;15.00;79.80;15.20;103037.00;;;;4938520;28;92966;-65
2022/03/18 09:16:36;;;;;;;9.25;6.80;;;15.10;79.50;15.30;103041.00;;;;4936294;28;92796;-66
2022/03/18 09:19:03;;;;;;;13.25;7.60;;;15.20;78.90;15.50;103047.00;;;;4937692;28;92954;-65
2022/03/18 09:21:29;;;;;;;12.00;6.70;;;15.40;77.90;15.70;103053.00;;;;4937064;28;92086;-65
2022/03/18 09:23:54;;;;;;;17.42;7.85;;;15.50;77.00;15.80;103047.00;;;;4936877;28;100882;-65
2022/03/18 09:26:20;;;;;;;10.88;7.25;;;15.70;75.20;15.90;103061.00;;;;4918309;28;122607;-65
2022/03/18 09:28:46;;;;;;;15.20;7.80;;;15.80;73.70;15.80;103061.00;;;;4916396;28;110215;-65
2022/03/18 09:31:12;;;;;;;12.60;8.15;;;15.70;72.40;15.70;103060.00;;;;4931624;28;92703;-66
2022/03/18 09:33:41;;;;;;;14.93;8.57;;;15.60;71.70;15.50;103055.00;;;;4936048;28;108956;-65
2022/03/18 09:36:09;;;;;;;10.55;7.35;;;15.50;71.90;15.50;103064.00;;;;4936010;28;94042;-65
2022/03/18 09:38:35;;;;;;;11.45;7.45;;;15.50;71.90;15.60;103072.00;;;;4951853;28;92867;-65
2022/03/18 09:41:00;;;;;;;13.10;8.57;;;15.50;72.50;15.80;103068.00;;;;4956071;28;92798;-64
2022/03/18 09:43:36;;;;;;;16.13;7.30;;;15.70;72.00;16.00;103076.00;;;;4953455;28;121080;-67
2022/03/18 09:46:08;;;;;;;10.43;6.30;;;15.80;71.50;16.30;103076.00;;;;4955428;28;93580;-65
2022/03/18 09:48:35;;;;;;;14.32;8.95;;;16.00;71.10;16.30;103078.00;;;;4938484;28;93026;-65
2022/03/18 09:51:01;;;;;;;10.55;7.82;;;16.10;68.80;16.30;103072.00;;;;4954441;28;103154;-65
2022/03/18 09:53:27;;;;;;;10.52;7.53;;;16.20;67.70;16.40;103076.00;;;;4954468;28;122870;-65
2022/03/18 09:55:53;;;;;;;18.88;7.97;;;16.20;67.70;16.60;103075.00;;;;4943207;28;93662;-66
2022/03/18 09:58:21;;;;;;;15.00;7.85;;;16.30;67.90;16.90;103077.00;;;;4935611;28;97624;-66
2022/03/18 10:00:50;;;;;;;11.70;8.07;;;16.60;67.10;17.30;103068.00;;;;4935999;28;92800;-65
2022/03/18 10:03:19;;;;;;;13.02;8.63;;;16.90;64.10;17.50;103075.00;;;;4935737;28;93668;-65
2022/03/18 10:05:59;;;;;;;19.65;7.85;;;17.20;62.60;17.70;103082.00;;;;4936282;28;92754;-65
2022/03/18 10:08:50;;;;;;;11.27;7.45;;;17.40;61.30;18.00;103078.00;;;;4948677;28;92881;-64
2022/03/18 10:11:23;;;;;;;15.95;8.50;;;17.60;60.50;18.10;103076.00;;;;4955472;28;91992;-66
2022/03/18 10:13:56;;;;;;;11.15;7.88;;;17.90;59.30;18.30;103075.00;;;;4940174;28;94081;-66
2022/03/18 10:16:38;;;;;;;19.15;9.05;;;18.00;58.90;18.50;103072.00;;;;4950546;28;93919;-65
2022/03/18 10:19:15;;;;;;;12.40;7.72;;;18.20;58.40;18.70;103085.00;;;;4954118;28;103534;-68
2022/03/18 10:22:03;;;;;;;17.20;9.25;;;18.40;58.00;18.90;103089.00;;;;4919274;28;92871;-67
2022/03/18 10:24:31;;;;;;;12.98;8.63;;;18.50;55.00;19.00;103090.00;;;;4914820;28;93082;-68
2022/03/18 10:27:17;;;;;;;11.35;7.45;;;18.60;54.40;19.00;103094.00;;;;4916073;28;93168;-69
2022/03/18 10:29:55;;;;;;;10.65;7.30;;;18.70;54.20;19.10;103097.00;;;;4919534;28;92816;-69
2022/03/18 10:32:24;;;;;;;17.50;8.88;;;18.70;54.40;19.30;103100.00;;;;4954836;28;92926;-69
2022/03/18 10:37:50;;;;;;;13.00;8.13;;;19.00;53.50;19.50;103099.00;;;;4951624;28;92200;-68
2022/03/18 10:40:19;;;;;;;13.65;7.90;;;19.10;53.20;19.60;103105.00;;;;4955327;28;92835;-69
2022/03/18 10:43:04;;;;;;;11.48;7.47;;;19.30;52.90;19.80;103107.00;;;;4953897;28;92716;-69
2022/03/18 10:45:30;;;;;;;17.67;9.13;;;19.40;50.70;19.70;103107.00;;;;4952004;28;94054;-69
2022/03/18 10:48:11;;;;;;;15.32;8.63;;;19.40;50.50;19.70;103117.00;;;;4955118;28;94638;-70
2022/03/18 10:50:40;;;;;;;15.38;7.53;;;19.40;50.20;19.70;103107.00;;;;4936873;28;92904;-69
2022/03/18 10:53:09;;;;;;;16.52;8.32;;;19.40;49.60;19.80;103117.00;;;;4955902;28;92708;-69
2022/03/18 10:55:40;;;;;;;12.07;8.18;;;19.40;50.30;19.90;103115.00;;;;4952504;28;94009;-68
2022/03/18 10:58:10;;;;;;;14.32;7.45;;;19.50;49.90;20.00;103114.00;;;;4955257;28;93173;-68
2022/03/18 11:00:39;;;;;;;10.27;7.47;;;19.60;50.50;20.20;103126.00;;;;4954567;28;92742;-69
2022/03/18 11:03:06;;;;;;;13.02;7.00;;;19.80;50.60;20.40;103122.00;;;;4925508;28;92000;-69